Time;durP1;ratioP1;P1;durP2;ratioP2;P2;SDS_P1;SDS_P2;PMS_P1;PMS_P2;Temp;Humidity;BMP_temperature;BMP_pressure;BME280_temperature;BME280_humidity;BME280_pressure;Samples;Min_cycle;Max_cycle;Signal;HPM_P1;HPM_P2
2022/06/02 00:00:19;;;;;;;1.33;1.23;;;16.60;74.30;;;;;;6052267;23;20528;-78
2022/06/02 00:03:06;;;;;;;1.97;1.37;;;16.50;74.40;;;;;;6060121;23;20474;-78
2022/06/02 00:05:52;;;;;;;1.30;1.20;;;16.50;74.50;;;;;;6061364;23;20434;-78
2022/06/02 00:08:30;;;;;;;2.03;1.47;;;16.50;74.80;;;;;;6058765;23;20555;-78
2022/06/02 00:11:10;;;;;;;1.57;1.10;;;16.40;74.70;;;;;;6059492;23;20450;-78
2022/06/02 00:13:45;;;;;;;1.67;1.30;;;16.40;75.10;;;;;;6054873;23;21013;-78
2022/06/02 00:16:17;;;;;;;1.53;1.30;;;16.50;75.20;;;;;;6060494;23;20945;-78
2022/06/02 00:18:50;;;;;;;1.40;1.30;;;16.40;75.20;;;;;;6059948;23;20452;-78
2022/06/02 00:21:27;;;;;;;1.87;1.20;;;16.40;75.30;;;;;;6060340;23;20902;-78
2022/06/02 00:24:01;;;;;;;1.33;1.23;;;16.40;75.30;;;;;;6059911;23;20439;-78
2022/06/02 00:26:46;;;;;;;1.40;1.30;;;16.40;75.40;;;;;;6059799;23;20978;-78
2022/06/02 00:29:26;;;;;;;1.30;1.20;;;16.40;76.30;;;;;;6060393;23;20449;-78
2022/06/02 00:32:04;;;;;;;1.40;1.30;;;16.40;75.70;;;;;;6061595;23;20554;-78
2022/06/02 00:34:37;;;;;;;1.50;1.20;;;16.40;75.90;;;;;;6061579;23;20481;-78
2022/06/02 00:37:25;;;;;;;2.80;1.30;;;16.40;76.20;;;;;;6061096;23;20469;-78
2022/06/02 00:39:53;;;;;;;1.70;1.47;;;16.30;76.60;;;;;;6054471;23;20514;-78
2022/06/02 00:42:37;;;;;;;1.60;1.50;;;16.20;76.90;;;;;;6060945;23;20540;-78
2022/06/02 00:45:07;;;;;;;2.07;1.33;;;16.20;77.10;;;;;;6062914;23;20447;-77
2022/06/02 00:47:43;;;;;;;1.43;1.33;;;16.20;77.40;;;;;;6060276;23;20460;-78
2022/06/02 00:50:13;;;;;;;2.30;1.20;;;16.10;77.70;;;;;;6062143;23;20498;-78
2022/06/02 00:52:51;;;;;;;1.70;1.40;;;16.00;78.00;;;;;;6060378;23;20471;-79
2022/06/02 00:58:26;;;;;;;1.70;1.53;;;16.00;78.50;;;;;;6052798;23;20451;-78
2022/06/02 01:00:56;;;;;;;2.23;1.50;;;16.00;78.80;;;;;;6061668;23;20566;-78
2022/06/02 01:03:28;;;;;;;2.03;1.40;;;15.90;79.10;;;;;;6061094;23;20534;-78
2022/06/02 01:06:24;;;;;;;1.30;1.20;;;15.80;79.50;;;;;;6061912;23;20941;-78
2022/06/02 01:09:14;;;;;;;1.83;1.63;;;15.80;79.90;;;;;;6060551;23;20518;-79
2022/06/02 01:11:53;;;;;;;1.50;1.20;;;15.70;80.00;;;;;;6059528;23;20985;-78
2022/06/02 01:14:34;;;;;;;1.67;1.40;;;15.80;80.30;;;;;;6061383;23;20515;-78
2022/06/02 01:17:10;;;;;;;1.33;1.20;;;15.70;80.40;;;;;;6058184;23;20554;-79
2022/06/02 01:19:58;;;;;;;1.57;1.47;;;15.70;80.60;;;;;;6053355;23;20458;-78
2022/06/02 01:22:52;;;;;;;1.70;1.30;;;15.70;80.80;;;;;;6056921;23;20547;-78
2022/06/02 01:25:53;;;;;;;1.77;1.40;;;15.70;81.50;;;;;;6060980;23;20538;-78
2022/06/02 01:28:48;;;;;;;2.73;1.60;;;15.60;81.70;;;;;;5984754;23;20507;-78
2022/06/02 01:31:26;;;;;;;1.90;1.37;;;15.60;82.20;;;;;;6060000;23;20861;-78
2022/06/02 01:34:01;;;;;;;1.50;1.40;;;15.50;82.40;;;;;;6061374;23;20451;-78
2022/06/02 01:36:35;;;;;;;2.17;1.43;;;15.50;82.90;;;;;;6061348;23;20550;-78
2022/06/02 01:39:19;;;;;;;1.63;1.53;;;15.40;83.10;;;;;;6060098;23;20895;-78
2022/06/02 01:41:57;;;;;;;1.80;1.53;;;15.40;83.30;;;;;;6052420;23;20492;-78
2022/06/02 01:44:33;;;;;;;2.00;1.50;;;15.50;83.70;;;;;;6055584;23;20830;-78
2022/06/02 01:47:07;;;;;;;2.33;1.70;;;15.40;83.90;;;;;;6062175;23;20470;-78
2022/06/02 01:49:46;;;;;;;1.97;1.43;;;15.40;84.00;;;;;;6061231;23;20450;-78
2022/06/02 01:52:32;;;;;;;1.90;1.50;;;15.40;84.50;;;;;;6059359;23;20521;-78
2022/06/02 01:55:28;;;;;;;1.33;1.23;;;15.40;84.80;;;;;;6051623;23;20481;-78
2022/06/02 01:58:11;;;;;;;2.07;1.30;;;15.30;85.10;;;;;;6025674;23;20522;-78
2022/06/02 02:00:39;;;;;;;1.97;1.40;;;15.30;85.30;;;;;;6062027;23;20451;-78
2022/06/02 02:03:19;;;;;;;1.63;1.53;;;15.30;85.70;;;;;;6059165;23;21010;-78
2022/06/02 02:06:04;;;;;;;2.93;1.57;;;15.30;85.90;;;;;;6061046;23;20526;-78
2022/06/02 02:08:52;;;;;;;1.60;1.33;;;15.20;86.30;;;;;;6054890;23;20850;-78
2022/06/02 02:11:42;;;;;;;2.17;1.43;;;15.20;86.50;;;;;;6056744;23;20788;-78
2022/06/02 02:14:22;;;;;;;1.53;1.23;;;15.30;86.60;;;;;;6060675;23;21045;-78
2022/06/02 02:16:53;;;;;;;2.30;1.50;;;15.30;86.30;;;;;;6061537;23;20992;-78
2022/06/02 02:19:29;;;;;;;2.23;1.67;;;15.50;86.40;;;;;;6060675;23;20458;-78
2022/06/02 02:22:04;;;;;;;1.40;1.30;;;15.50;85.90;;;;;;6060561;23;20471;-78
2022/06/02 02:24:43;;;;;;;1.37;1.23;;;15.50;85.80;;;;;;6060464;23;20539;-78
2022/06/02 02:27:18;;;;;;;1.50;1.40;;;15.60;85.70;;;;;;6061097;23;20446;-79
2022/06/02 02:29:52;;;;;;;2.80;1.60;;;15.50;85.90;;;;;;6054799;23;20537;-78
2022/06/02 02:32:30;;;;;;;2.27;1.40;;;15.50;86.00;;;;;;6060424;23;20534;-78
2022/06/02 02:35:07;;;;;;;1.30;1.20;;;15.50;86.10;;;;;;6059695;23;20447;-78
2022/06/02 02:37:38;;;;;;;1.40;1.30;;;15.50;86.30;;;;;;6059213;23;20973;-78
2022/06/02 02:40:10;;;;;;;1.23;1.13;;;15.40;86.30;;;;;;6061364;23;20942;-78
2022/06/02 02:42:47;;;;;;;1.93;1.50;;;15.50;86.50;;;;;;6060587;23;20474;-78
2022/06/02 02:45:40;;;;;;;1.50;1.40;;;15.50;86.50;;;;;;6062053;23;20439;-78
2022/06/02 02:48:17;;;;;;;2.13;1.50;;;15.60;86.50;;;;;;6049622;23;20971;-78
2022/06/02 02:50:54;;;;;;;2.10;1.30;;;15.50;86.40;;;;;;6060391;23;20943;-78
2022/06/02 02:53:25;;;;;;;2.10;1.30;;;15.60;86.50;;;;;;6059945;23;20458;-78
2022/06/02 02:55:57;;;;;;;1.93;1.40;;;15.60;86.30;;;;;;6060496;23;21018;-78
2022/06/02 02:58:41;;;;;;;2.30;1.30;;;15.60;86.40;;;;;;6061041;23;20475;-78
2022/06/02 03:01:12;;;;;;;1.40;1.30;;;15.60;87.00;;;;;;6058018;23;20523;-78
2022/06/02 03:03:44;;;;;;;1.60;1.50;;;15.60;87.50;;;;;;6058605;23;20439;-78
2022/06/02 03:06:21;;;;;;;2.83;1.47;;;15.50;87.80;;;;;;6059816;23;20538;-78
2022/06/02 03:08:59;;;;;;;2.73;1.53;;;15.40;88.10;;;;;;6061263;23;20474;-78
2022/06/02 03:11:55;;;;;;;2.33;1.60;;;15.40;88.30;;;;;;6057224;23;21176;-78
2022/06/02 03:14:35;;;;;;;1.80;1.37;;;15.40;88.60;;;;;;6055620;23;20467;-78
2022/06/02 03:17:11;;;;;;;1.97;1.30;;;15.40;89.10;;;;;;6054997;23;20510;-78
2022/06/02 03:19:49;;;;;;;1.57;1.30;;;15.40;89.20;;;;;;6061868;23;20550;-78
2022/06/02 03:22:31;;;;;;;3.67;1.40;;;15.40;89.30;;;;;;6060682;23;20576;-78
2022/06/02 03:25:07;;;;;;;1.80;1.70;;;15.40;89.10;;;;;;6058224;23;20460;-78
2022/06/02 03:27:44;;;;;;;2.43;1.60;;;15.30;89.20;;;;;;6052012;23;20474;-78
2022/06/02 03:30:20;;;;;;;1.87;1.60;;;15.30;89.50;;;;;;6056887;23;20451;-79
2022/06/02 03:33:17;;;;;;;1.53;1.30;;;15.30;89.70;;;;;;6061527;23;21020;-80
2022/06/02 03:35:53;;;;;;;1.90;1.43;;;15.30;89.60;;;;;;6051424;23;20949;-78
2022/06/02 03:38:36;;;;;;;1.30;1.20;;;15.20;89.70;;;;;;6059713;23;20447;-78
2022/06/02 03:41:26;;;;;;;3.47;1.60;;;15.20;90.00;;;;;;6054573;23;20526;-78
2022/06/02 03:44:01;;;;;;;1.53;1.43;;;15.20;90.10;;;;;;6046054;23;20447;-78
2022/06/02 03:46:48;;;;;;;1.67;1.57;;;15.20;90.10;;;;;;6057579;23;20489;-78
2022/06/02 03:49:38;;;;;;;2.13;1.43;;;15.30;90.00;;;;;;6057628;23;20534;-78
2022/06/02 03:52:24;;;;;;;2.10;2.00;;;15.30;90.10;;;;;;6055830;23;20534;-78
2022/06/02 03:55:09;;;;;;;2.40;1.60;;;15.30;89.90;;;;;;6053535;23;20447;-78
2022/06/02 03:57:48;;;;;;;1.97;1.60;;;15.30;90.00;;;;;;6057562;23;20810;-78
2022/06/02 04:00:23;;;;;;;2.20;1.80;;;15.20;90.00;;;;;;6059718;23;20546;-78
2022/06/02 04:02:53;;;;;;;2.00;1.57;;;15.20;90.00;;;;;;6061668;23;20496;-78
2022/06/02 04:05:59;;;;;;;1.47;1.37;;;15.20;90.20;;;;;;6060252;23;21207;-78
2022/06/02 04:08:50;;;;;;;1.60;1.50;;;15.20;90.10;;;;;;6058550;23;20518;-78
2022/06/02 04:14:30;;;;;;;1.70;1.60;;;15.30;90.10;;;;;;6050835;23;20443;-78
2022/06/02 04:17:02;;;;;;;1.70;1.50;;;15.30;90.30;;;;;;6060859;23;20590;-78
2022/06/02 04:22:55;;;;;;;1.53;1.43;;;15.30;90.20;;;;;;6053485;23;20488;-79
2022/06/02 04:25:37;;;;;;;1.50;1.40;;;15.40;90.30;;;;;;6052754;23;20462;-78
2022/06/02 04:28:15;;;;;;;1.73;1.50;;;15.40;90.30;;;;;;6062095;23;20451;-78
2022/06/02 04:30:51;;;;;;;2.00;1.90;;;15.40;90.20;;;;;;6054474;23;20499;-78
2022/06/02 04:33:27;;;;;;;1.83;1.57;;;15.30;90.20;;;;;;6057825;23;20435;-77
2022/06/02 04:36:04;;;;;;;1.73;1.63;;;15.40;90.30;;;;;;6060511;23;20933;-77
2022/06/02 04:38:46;;;;;;;1.80;1.70;;;15.40;90.30;;;;;;6060826;23;20439;-77
2022/06/02 04:41:20;;;;;;;2.80;1.67;;;15.40;90.20;;;;;;6061691;23;21036;-77
2022/06/02 04:43:56;;;;;;;2.20;1.60;;;15.40;90.40;;;;;;6057221;23;20526;-77
2022/06/02 04:46:38;;;;;;;2.00;1.53;;;15.50;90.40;;;;;;6064874;23;20539;-78
2022/06/02 04:49:11;;;;;;;2.30;2.10;;;15.60;90.30;;;;;;6069712;23;20830;-77
2022/06/02 04:51:48;;;;;;;2.07;1.73;;;15.60;90.30;;;;;;6077971;23;20540;-78
2022/06/02 04:54:25;;;;;;;2.20;2.00;;;15.70;90.30;;;;;;6067953;23;20447;-79
2022/06/02 04:56:59;;;;;;;2.23;1.83;;;15.70;90.10;;;;;;6061323;23;20561;-79
2022/06/02 04:59:35;;;;;;;1.90;1.80;;;15.70;90.20;;;;;;6069755;23;20465;-79
2022/06/02 05:02:13;;;;;;;2.50;2.00;;;15.80;90.10;;;;;;6063677;23;20547;-78
2022/06/02 05:04:51;;;;;;;2.07;1.90;;;15.70;89.80;;;;;;6057895;23;20517;-79
2022/06/02 05:07:26;;;;;;;2.20;1.90;;;15.80;90.00;;;;;;6070870;23;20468;-79
2022/06/02 05:10:06;;;;;;;2.30;1.80;;;15.90;89.80;;;;;;6069230;23;20593;-79
2022/06/02 05:12:46;;;;;;;2.03;1.90;;;16.10;89.90;;;;;;6064103;23;20518;-79
2022/06/02 05:15:24;;;;;;;2.53;1.83;;;16.20;89.60;;;;;;6067904;23;20446;-78
2022/06/02 05:18:15;;;;;;;1.93;1.73;;;16.30;89.30;;;;;;6068638;23;20464;-85
2022/06/02 05:21:04;;;;;;;2.67;2.00;;;16.40;88.20;;;;;;6063280;23;20542;-86
2022/06/02 05:23:59;;;;;;;1.60;1.50;;;16.50;87.70;;;;;;6026259;23;20451;-85
2022/06/02 05:26:50;;;;;;;1.77;1.67;;;16.60;86.70;;;;;;6062852;23;20542;-86
2022/06/02 05:29:34;;;;;;;2.27;1.60;;;16.70;86.50;;;;;;6056123;23;20449;-85
2022/06/02 05:32:19;;;;;;;2.13;1.90;;;16.80;85.90;;;;;;6067006;23;20526;-86
2022/06/02 05:35:16;;;;;;;1.97;1.87;;;16.90;86.00;;;;;;6035637;23;20558;-85
2022/06/02 05:38:04;;;;;;;3.20;2.20;;;17.00;84.20;;;;;;6059366;23;20511;-85
2022/06/02 05:40:37;;;;;;;1.53;1.43;;;17.00;83.40;;;;;;6049313;23;20481;-84
2022/06/02 05:43:29;;;;;;;1.60;1.50;;;17.20;82.80;;;;;;6059417;23;20470;-84
2022/06/02 05:46:20;;;;;;;2.10;1.90;;;17.20;81.10;;;;;;6057176;23;20523;-85
2022/06/02 05:49:08;;;;;;;2.13;1.83;;;17.20;82.00;;;;;;6056855;23;20437;-84
2022/06/02 05:51:41;;;;;;;1.57;1.47;;;17.30;82.60;;;;;;6063783;23;20488;-84
2022/06/02 05:54:21;;;;;;;2.43;1.63;;;17.30;81.60;;;;;;6066599;23;20462;-83
2022/06/02 05:57:01;;;;;;;1.90;1.80;;;17.50;81.30;;;;;;6067821;23;20545;-84
2022/06/02 05:59:51;;;;;;;3.60;1.90;;;17.40;82.20;;;;;;6041391;23;20447;-84
2022/06/02 06:02:40;;;;;;;3.47;1.83;;;17.30;81.60;;;;;;6062460;23;20616;-83
2022/06/02 06:05:18;;;;;;;2.77;2.13;;;17.10;80.90;;;;;;6058888;23;20555;-84
2022/06/02 06:08:14;;;;;;;1.80;1.70;;;17.00;79.80;;;;;;6054734;23;20461;-78
2022/06/02 06:10:55;;;;;;;1.97;1.80;;;17.00;81.00;;;;;;6061348;23;21032;-78
2022/06/02 06:13:52;;;;;;;4.00;1.93;;;17.20;81.60;;;;;;6064267;23;20463;-78
2022/06/02 06:16:26;;;;;;;2.60;2.40;;;17.20;81.90;;;;;;6034698;23;20503;-77
2022/06/02 06:19:07;;;;;;;1.90;1.80;;;17.40;80.80;;;;;;6060049;23;20444;-77
2022/06/02 06:21:54;;;;;;;2.47;1.77;;;17.40;81.10;;;;;;6059754;23;20471;-77
2022/06/02 06:24:50;;;;;;;1.80;1.70;;;17.30;81.30;;;;;;6068725;23;20476;-78
2022/06/02 06:27:25;;;;;;;1.90;1.80;;;17.30;80.00;;;;;;6038563;23;20441;-78
2022/06/02 06:30:02;;;;;;;2.10;1.70;;;17.10;80.50;;;;;;6064626;23;20444;-78
2022/06/02 06:32:38;;;;;;;2.50;1.83;;;17.10;78.40;;;;;;6055740;23;20462;-78
2022/06/02 06:35:19;;;;;;;2.17;1.97;;;17.20;78.30;;;;;;6059536;23;20476;-78
2022/06/02 06:38:19;;;;;;;3.03;2.10;;;17.30;79.30;;;;;;6066372;23;20537;-78
2022/06/02 06:41:04;;;;;;;4.27;2.83;;;17.40;81.20;;;;;;6037257;23;20520;-78
2022/06/02 06:43:56;;;;;;;5.43;2.40;;;17.30;79.90;;;;;;6064634;23;20991;-78
2022/06/02 06:46:26;;;;;;;3.10;2.27;;;17.30;81.60;;;;;;6057336;23;20977;-77
2022/06/02 06:48:58;;;;;;;4.70;2.50;;;17.40;82.50;;;;;;6060903;23;21086;-78
2022/06/02 06:51:37;;;;;;;2.00;1.83;;;17.50;82.60;;;;;;6059746;23;20465;-77
2022/06/02 06:54:16;;;;;;;3.00;2.70;;;17.60;82.60;;;;;;6061819;23;20442;-77
2022/06/02 06:56:51;;;;;;;1.97;1.87;;;17.70;82.80;;;;;;6063614;23;20434;-77
2022/06/02 06:59:29;;;;;;;2.70;2.20;;;17.60;81.00;;;;;;6065874;23;20997;-77
2022/06/02 07:02:06;;;;;;;2.63;2.00;;;17.40;79.50;;;;;;6069319;23;20507;-78
2022/06/02 07:04:42;;;;;;;5.23;2.60;;;17.50;81.90;;;;;;6064796;23;20791;-77
2022/06/02 07:07:16;;;;;;;2.53;2.13;;;17.50;79.80;;;;;;6060188;23;20455;-77
2022/06/02 07:09:53;;;;;;;2.57;2.33;;;17.70;79.70;;;;;;6062608;23;20478;-77
2022/06/02 07:15:19;;;;;;;3.57;2.10;;;17.80;79.30;;;;;;6053059;23;21012;-77
2022/06/02 07:17:53;;;;;;;4.27;1.80;;;17.80;79.90;;;;;;6068153;23;20470;-78
2022/06/02 07:20:25;;;;;;;3.40;2.03;;;17.80;80.60;;;;;;6063981;23;20569;-77
2022/06/02 07:23:01;;;;;;;2.97;2.30;;;18.00;80.00;;;;;;6065479;23;20439;-77
2022/06/02 07:25:38;;;;;;;5.13;2.47;;;18.20;79.10;;;;;;6072983;23;21016;-77
2022/06/02 07:28:11;;;;;;;2.40;1.97;;;18.20;78.20;;;;;;6068153;23;20530;-77
2022/06/02 07:30:50;;;;;;;4.33;2.00;;;18.30;78.30;;;;;;6066601;23;20512;-78
2022/06/02 07:33:34;;;;;;;2.30;1.73;;;18.60;78.90;;;;;;6050560;23;20438;-77
2022/06/02 07:36:22;;;;;;;1.80;1.70;;;19.00;78.30;;;;;;6034728;23;20440;-78
2022/06/02 07:39:24;;;;;;;1.80;1.70;;;19.70;76.50;;;;;;6060016;23;20498;-77
2022/06/02 07:42:17;;;;;;;2.37;1.90;;;20.60;73.40;;;;;;6066241;23;20526;-77
2022/06/02 07:45:14;;;;;;;2.40;1.50;;;21.30;71.40;;;;;;6060647;23;20937;-78
2022/06/02 07:48:00;;;;;;;2.93;1.90;;;22.10;69.60;;;;;;6035293;23;20445;-78
2022/06/02 07:50:30;;;;;;;2.10;1.90;;;22.80;68.50;;;;;;6060252;23;20518;-77
2022/06/02 07:53:09;;;;;;;1.73;1.63;;;23.30;65.60;;;;;;6063476;23;21781;-78
2022/06/02 07:55:46;;;;;;;3.17;1.80;;;23.40;66.10;;;;;;6059072;23;20444;-78
2022/06/02 07:58:27;;;;;;;2.40;1.70;;;24.10;65.40;;;;;;6065059;23;20652;-77
2022/06/02 08:01:01;;;;;;;3.30;2.03;;;24.70;64.10;;;;;;6063183;23;20454;-77
2022/06/02 08:03:59;;;;;;;1.70;1.60;;;25.10;61.60;;;;;;6066598;23;20546;-77
2022/06/02 08:06:36;;;;;;;1.60;1.50;;;25.60;60.80;;;;;;6064980;23;21033;-77
2022/06/02 08:09:46;;;;;;;1.77;1.67;;;25.90;59.50;;;;;;6064238;23;20443;-77
2022/06/02 08:12:21;;;;;;;1.57;1.47;;;26.30;58.50;;;;;;6049363;23;20464;-77
2022/06/02 08:15:04;;;;;;;2.80;1.60;;;26.40;57.80;;;;;;6063637;23;20470;-78
2022/06/02 08:17:37;;;;;;;1.87;1.60;;;26.80;57.60;;;;;;6062275;23;20544;-78
2022/06/02 08:20:43;;;;;;;1.77;1.40;;;27.00;56.50;;;;;;6060274;23;20877;-78
2022/06/02 08:23:29;;;;;;;1.57;1.47;;;27.50;56.00;;;;;;6047489;23;20463;-77
2022/06/02 08:26:10;;;;;;;2.73;1.47;;;27.60;55.40;;;;;;6069348;23;20443;-77
2022/06/02 08:29:02;;;;;;;1.90;1.70;;;27.30;55.50;;;;;;6065032;23;20964;-78
2022/06/02 08:31:59;;;;;;;3.60;1.90;;;27.30;56.00;;;;;;6061597;23;20494;-78
2022/06/02 08:34:36;;;;;;;2.33;1.60;;;27.30;55.30;;;;;;6066210;23;20856;-78
2022/06/02 08:37:11;;;;;;;1.60;1.50;;;27.70;54.40;;;;;;6056233;23;20471;-77
2022/06/02 08:40:02;;;;;;;3.60;1.60;;;27.80;53.40;;;;;;6069265;23;20467;-78
2022/06/02 08:43:00;;;;;;;2.60;1.73;;;27.90;53.40;;;;;;6060784;23;20438;-78
2022/06/02 08:46:09;;;;;;;2.13;1.60;;;27.90;51.90;;;;;;6058590;23;20547;-77
2022/06/02 08:49:04;;;;;;;2.03;1.93;;;27.10;52.10;;;;;;6051853;23;20447;-77
2022/06/02 08:52:12;;;;;;;2.50;1.47;;;26.00;53.30;;;;;;6067893;23;20465;-77
2022/06/02 08:55:15;;;;;;;1.40;1.30;;;26.10;54.90;;;;;;6069287;23;21406;-77
2022/06/02 08:58:15;;;;;;;1.90;1.30;;;26.60;55.20;;;;;;6066666;23;20476;-78
2022/06/02 09:00:55;;;;;;;1.43;1.27;;;27.60;53.50;;;;;;6066603;23;21032;-77
2022/06/02 09:03:45;;;;;;;2.00;1.30;;;28.10;52.00;;;;;;6065124;23;20435;-84
2022/06/02 09:06:59;;;;;;;2.53;1.50;;;28.60;51.10;;;;;;6069572;23;20521;-82
2022/06/02 09:09:56;;;;;;;1.60;1.50;;;29.10;50.80;;;;;;6064490;23;20991;-81
2022/06/02 09:12:48;;;;;;;1.40;1.30;;;28.60;50.10;;;;;;6060756;23;20444;-82
2022/06/02 09:15:42;;;;;;;3.20;1.63;;;28.40;51.50;;;;;;6063795;23;20521;-82
2022/06/02 09:18:18;;;;;;;3.00;1.70;;;28.10;51.80;;;;;;6070712;23;20965;-82
2022/06/02 09:20:55;;;;;;;1.60;1.40;;;28.90;50.90;;;;;;6068128;23;20477;-82
2022/06/02 09:23:47;;;;;;;1.77;1.30;;;28.90;50.10;;;;;;6070836;23;20486;-82
2022/06/02 09:26:30;;;;;;;1.60;1.50;;;29.20;50.60;;;;;;6063849;23;20458;-82
2022/06/02 09:29:23;;;;;;;1.60;1.50;;;29.70;49.80;;;;;;6065082;23;20513;-81
2022/06/02 09:32:23;;;;;;;1.67;1.57;;;30.30;49.40;;;;;;6061773;23;21237;-82
2022/06/02 09:35:02;;;;;;;3.20;1.37;;;30.30;48.50;;;;;;6067855;23;20496;-80
2022/06/02 09:38:01;;;;;;;2.00;1.80;;;30.20;48.80;;;;;;6064793;23;20471;-82
2022/06/02 09:40:45;;;;;;;2.60;1.70;;;28.00;50.50;;;;;;6058351;23;21175;-82
2022/06/02 09:43:36;;;;;;;2.27;1.60;;;27.00;52.20;;;;;;6059240;23;20455;-82
2022/06/02 09:46:34;;;;;;;1.70;1.60;;;27.10;52.30;;;;;;6059477;23;20494;-82
2022/06/02 09:49:14;;;;;;;2.73;1.80;;;27.50;51.80;;;;;;6066210;23;20455;-82
2022/06/02 09:51:59;;;;;;;2.20;1.60;;;27.60;52.20;;;;;;6067818;23;20760;-83
2022/06/02 09:54:54;;;;;;;2.23;1.40;;;27.60;52.10;;;;;;6062297;23;20455;-82
2022/06/02 09:57:56;;;;;;;1.87;1.37;;;27.90;52.20;;;;;;6053041;23;20445;-85
2022/06/02 10:00:52;;;;;;;1.50;1.23;;;28.00;51.70;;;;;;6060922;23;20481;-83
2022/06/02 10:03:41;;;;;;;2.03;1.83;;;28.50;51.60;;;;;;6051013;23;20456;-83
2022/06/02 10:06:21;;;;;;;1.40;1.27;;;29.20;51.40;;;;;;6069929;23;20459;-82
2022/06/02 10:09:07;;;;;;;2.63;1.33;;;29.30;51.20;;;;;;6063961;23;20501;-84
2022/06/02 10:11:43;;;;;;;2.13;1.93;;;29.60;50.50;;;;;;6060653;23;20493;-84
2022/06/02 10:14:40;;;;;;;3.30;2.23;;;30.00;49.70;;;;;;6063567;23;21132;-85
2022/06/02 10:17:42;;;;;;;1.53;1.30;;;30.20;49.70;;;;;;6059012;23;20474;-84
2022/06/02 10:20:38;;;;;;;6.73;6.33;;;30.60;48.50;;;;;;6061902;23;20565;-85
2022/06/02 10:23:25;;;;;;;3.87;3.57;;;30.90;47.80;;;;;;6064157;23;20439;-85
2022/06/02 10:26:08;;;;;;;2.90;2.70;;;31.30;48.20;;;;;;6061834;23;20517;-85
2022/06/02 10:29:13;;;;;;;2.23;1.70;;;31.70;47.20;;;;;;6060906;23;20436;-84
2022/06/02 10:32:03;;;;;;;17.33;16.20;;;31.20;46.60;;;;;;6059576;23;20518;-85
2022/06/02 10:35:17;;;;;;;1.87;1.53;;;30.80;47.50;;;;;;6070254;23;20441;-84
2022/06/02 10:38:10;;;;;;;1.80;1.70;;;29.80;47.70;;;;;;6016579;23;20441;-83
2022/06/02 10:41:14;;;;;;;3.40;1.90;;;29.60;49.30;;;;;;6063145;23;20466;-85
2022/06/02 10:44:11;;;;;;;1.87;1.77;;;29.80;48.80;;;;;;6045586;23;20442;-84
2022/06/02 10:47:23;;;;;;;2.00;1.70;;;30.00;48.40;;;;;;6058879;23;20530;-84
2022/06/02 10:50:01;;;;;;;2.23;1.50;;;30.20;49.10;;;;;;6068603;23;20465;-84
2022/06/02 10:53:01;;;;;;;2.47;1.53;;;30.50;48.30;;;;;;6033904;23;20467;-81
2022/06/02 10:56:06;;;;;;;2.60;1.50;;;30.50;48.10;;;;;;6058828;23;20431;-82
2022/06/02 10:59:25;;;;;;;2.03;1.13;;;31.10;47.30;;;;;;6002178;23;20471;-83
2022/06/02 11:02:37;;;;;;;4.03;1.40;;;31.60;46.90;;;;;;6060413;23;20834;-86
2022/06/02 11:05:37;;;;;;;1.90;1.40;;;32.10;46.50;;;;;;6016278;23;20507;-79
2022/06/02 11:08:56;;;;;;;1.87;1.30;;;31.70;46.40;;;;;;6041398;23;21094;-84
2022/06/02 11:11:50;;;;;;;1.50;1.40;;;31.10;46.70;;;;;;6034849;23;20487;-87
2022/06/02 11:15:09;;;;;;;1.70;1.60;;;30.70;47.70;;;;;;6060854;23;20545;-86
2022/06/02 11:18:11;;;;;;;2.53;1.50;;;30.10;47.40;;;;;;5950474;23;20442;-87
2022/06/02 11:21:03;;;;;;;1.50;1.13;;;29.90;49.00;;;;;;6055880;23;20479;-84
2022/06/02 11:24:01;;;;;;;1.40;1.20;;;30.20;46.80;;;;;;6061643;23;20892;-85
2022/06/02 11:26:58;;;;;;;1.70;1.30;;;29.90;47.80;;;;;;6071015;23;20526;-85
2022/06/02 11:29:55;;;;;;;1.67;1.57;;;29.90;48.40;;;;;;6066533;23;20451;-86
2022/06/02 11:32:45;;;;;;;1.50;1.40;;;29.40;49.10;;;;;;6055901;23;21080;-85
2022/06/02 11:36:05;;;;;;;1.57;1.47;;;28.70;49.60;;;;;;6060662;23;21012;-84
2022/06/02 11:38:54;;;;;;;1.40;1.30;;;28.90;50.40;;;;;;6008555;23;20517;-84
2022/06/02 11:41:44;;;;;;;1.50;1.40;;;29.60;49.30;;;;;;6058561;23;20923;-84
2022/06/02 11:44:17;;;;;;;1.30;1.20;;;30.20;48.20;;;;;;6060478;23;20938;-82
2022/06/02 11:47:05;;;;;;;2.43;1.40;;;30.60;48.00;;;;;;6065612;23;20539;-83
2022/06/02 11:50:16;;;;;;;1.30;1.20;;;31.20;46.80;;;;;;6062162;23;20471;-84
2022/06/02 11:53:31;;;;;;;2.60;1.40;;;31.50;46.80;;;;;;6059684;23;20446;-84
2022/06/02 11:56:05;;;;;;;1.73;1.50;;;31.70;46.70;;;;;;5925174;24;20530;-84
2022/06/02 11:59:00;;;;;;;2.20;1.60;;;30.90;46.30;;;;;;6055298;23;20509;-85
2022/06/02 12:01:44;;;;;;;3.30;1.60;;;30.30;47.00;;;;;;6006012;23;20851;-85
2022/06/02 12:04:44;;;;;;;2.17;1.57;;;29.50;49.10;;;;;;6052084;23;20533;-85
2022/06/02 12:07:32;;;;;;;1.57;1.40;;;29.70;49.70;;;;;;6069062;23;20442;-86
2022/06/02 12:10:54;;;;;;;1.77;1.63;;;30.20;49.00;;;;;;6064995;23;20469;-85
2022/06/02 12:13:49;;;;;;;2.20;1.70;;;30.00;48.10;;;;;;5977881;23;20458;-85
2022/06/02 12:16:45;;;;;;;1.77;1.40;;;29.90;49.70;;;;;;6059831;23;20510;-85
2022/06/02 12:19:40;;;;;;;1.93;1.40;;;30.40;48.40;;;;;;5982712;23;20474;-84
2022/06/02 12:22:41;;;;;;;2.20;1.50;;;29.40;49.20;;;;;;6054261;23;20453;-84
2022/06/02 12:25:36;;;;;;;3.57;1.47;;;29.10;50.10;;;;;;6026890;23;20481;-84
2022/06/02 12:28:26;;;;;;;2.13;1.30;;;28.70;49.90;;;;;;6067277;23;20435;-84
2022/06/02 12:31:24;;;;;;;1.47;1.37;;;28.90;50.70;;;;;;6065967;23;20529;-83
2022/06/02 12:34:11;;;;;;;2.80;1.57;;;29.00;49.60;;;;;;6061686;23;20575;-84
2022/06/02 12:37:10;;;;;;;2.33;1.50;;;29.20;49.90;;;;;;6066396;23;20934;-81
2022/06/02 12:40:03;;;;;;;1.57;1.47;;;28.90;50.20;;;;;;6042425;23;20481;-81
2022/06/02 12:42:58;;;;;;;2.30;1.50;;;28.10;50.00;;;;;;6070823;23;20436;-81
2022/06/02 12:45:46;;;;;;;2.20;1.23;;;27.90;52.00;;;;;;5997595;23;20443;-81
2022/06/02 12:48:53;;;;;;;2.27;1.60;;;28.30;50.90;;;;;;6056708;23;20510;-82
2022/06/02 12:51:45;;;;;;;1.83;1.53;;;28.60;51.40;;;;;;6033193;23;20933;-81
2022/06/02 12:55:02;;;;;;;1.50;1.40;;;28.90;49.90;;;;;;6063888;23;20444;-81
2022/06/02 12:58:11;;;;;;;1.80;1.70;;;29.00;49.70;;;;;;6060174;23;21120;-81
2022/06/02 13:00:56;;;;;;;1.33;1.23;;;29.10;50.60;;;;;;6062442;23;20467;-81
2022/06/02 13:04:03;;;;;;;1.87;1.30;;;29.70;50.30;;;;;;6046440;23;20456;-81
2022/06/02 13:07:03;;;;;;;1.90;1.50;;;30.30;49.90;;;;;;6063091;23;20493;-82
2022/06/02 13:09:44;;;;;;;3.60;2.37;;;31.00;48.70;;;;;;6068257;23;20466;-82
2022/06/02 13:12:47;;;;;;;1.40;1.30;;;31.50;48.00;;;;;;6067159;23;21225;-81
2022/06/02 13:15:37;;;;;;;2.07;1.37;;;32.00;47.70;;;;;;6065184;23;20514;-81
2022/06/02 13:18:31;;;;;;;1.97;1.33;;;32.80;46.90;;;;;;6062102;23;20518;-82
2022/06/02 13:21:40;;;;;;;1.70;1.60;;;33.30;45.70;;;;;;6067146;23;20943;-82
2022/06/02 13:24:33;;;;;;;1.77;1.50;;;33.80;45.80;;;;;;6058625;23;20514;-82
2022/06/02 13:27:17;;;;;;;2.03;1.43;;;34.00;45.60;;;;;;6068621;23;21243;-82
2022/06/02 13:30:20;;;;;;;1.40;1.30;;;33.90;45.30;;;;;;6069877;23;20466;-81
2022/06/02 13:33:14;;;;;;;1.83;1.53;;;33.50;45.20;;;;;;6060538;23;20518;-82
2022/06/02 13:36:16;;;;;;;1.73;1.40;;;32.80;45.70;;;;;;6064289;23;20435;-82
2022/06/02 13:39:07;;;;;;;1.70;1.40;;;31.90;46.60;;;;;;6029878;23;20537;-82
2022/06/02 13:41:59;;;;;;;3.10;1.50;;;31.50;47.20;;;;;;6068760;23;20949;-82
2022/06/02 13:45:03;;;;;;;1.40;1.30;;;30.90;48.10;;;;;;6062164;23;20466;-82
2022/06/02 13:48:00;;;;;;;1.87;1.30;;;31.30;47.70;;;;;;6066003;23;20435;-82
2022/06/02 13:51:02;;;;;;;2.40;1.20;;;32.40;46.80;;;;;;6061845;23;20446;-82
2022/06/02 14:00:07;;;;;;;1.87;1.77;;;35.60;43.70;;;;;;6069213;23;20972;-83
2022/06/02 14:02:57;;;;;;;1.40;1.30;;;36.60;42.80;;;;;;6065136;23;20572;-82
2022/06/02 14:05:39;;;;;;;1.40;1.20;;;37.70;41.40;;;;;;6049998;23;20439;-82
2022/06/02 14:08:37;;;;;;;3.20;1.30;;;37.60;41.50;;;;;;6068300;23;20443;-82
2022/06/02 14:11:18;;;;;;;1.50;1.40;;;38.20;40.90;;;;;;6066729;23;20443;-83
2022/06/02 14:14:08;;;;;;;1.40;1.30;;;38.70;39.30;;;;;;6061105;23;20501;-83
2022/06/02 14:16:51;;;;;;;1.40;1.30;;;40.20;38.90;;;;;;6061834;23;20503;-84
2022/06/02 14:19:37;;;;;;;1.83;1.37;;;41.70;37.60;;;;;;6060165;23;20468;-84
2022/06/02 14:22:14;;;;;;;1.33;1.20;;;43.00;36.40;;;;;;6066352;23;20448;-82
2022/06/02 14:24:52;;;;;;;1.70;1.50;;;43.90;35.30;;;;;;6060567;23;20474;-80
2022/06/02 14:27:30;;;;;;;1.73;1.40;;;44.40;35.00;;;;;;6064063;23;21192;-84
2022/06/02 14:30:06;;;;;;;1.80;1.20;;;43.60;34.40;;;;;;6051456;23;20456;-84
2022/06/02 14:32:43;;;;;;;2.00;1.30;;;42.60;34.60;;;;;;6077834;23;20449;-88
2022/06/02 14:35:42;;;;;;;2.22;1.30;;;40.40;35.70;;;;;;6087403;23;20428;-88
2022/06/02 14:38:23;;;;;;;2.47;1.50;;;37.40;38.00;;;;;;6044736;23;20282;-84
2022/06/02 14:40:56;;;;;;;2.00;1.50;;;35.60;40.00;;;;;;6070748;23;20550;-82
2022/06/02 14:43:52;;;;;;;2.57;1.97;;;34.80;41.10;;;;;;6058785;23;20448;-83